Latest Weather Observations for Canberra

IDN60901

Issued at 6:41 am EST Saturday 27 May 2017 (issued every 10 minutes, with the page automatically refreshed every 10 minutes)

About weather observations | Map of Canberra area stations | Latest observations for Canberra area | Other Formats
Station Details ID: 070351 Name: CANBERRA AIRPORT Lat: -35.31 Lon: 149.20 Height: 577.05 m
Data from the previous 72 hours. | See also: Recent months at Canberra
Date/Time
EST
Temp
°C
App
Temp
°C
Dew
Point
°C
Rel
Hum
%
Delta-T
°C
Wind Press
QNH
hPa
Press
MSL
hPa
Rain since
9am
mm
Dir  Spd
km/h
Gust
km/h
Spd
kts
Gust
kts
27/06:30am 5.5 4.5 5.4 99 0.0 CALM 0 0 0 0 1022.1 1022.3 0.0
27/06:00am 5.3 4.2 5.2 99 0.0 CALM 0 7 0 4 1022.1 1022.3 0.0
27/05:30am 4.5 2.5 4.4 99 0.0 SSW 4 7 2 4 1022.1 1022.3 0.0
27/05:00am 4.2 1.8 4.1 99 0.0 SSW 6 9 3 5 1022.1 1022.3 0.0
27/04:30am 2.9 0.2 2.8 99 0.0 SW 6 7 3 4 1022.0 1022.2 0.0
27/04:22am 2.4 -0.4 2.3 99 0.0 W 6 6 3 3 1022.0 1022.2 0.0
27/04:00am 2.2 -0.6 2.1 99 0.0 ESE 6 7 3 4 1021.9 1022.1 0.0
27/03:42am 1.6 -0.9 1.5 99 0.0 E 4 7 2 4 1022.0 1022.2 0.0
27/03:30am 0.9 -2.1 0.8 99 0.0 NNW 6 9 3 5 1022.0 1022.2 0.0
27/03:00am 3.0 1.5 2.9 99 0.0 CALM 0 4 0 2 1022.2 1022.4 0.0
27/02:30am 4.0 1.5 3.9 99 0.0 ESE 6 7 3 4 1022.5 1022.8 0.0
27/02:00am 3.5 2.1 3.4 99 0.0 CALM 0 0 0 0 1022.5 1022.8 0.0
27/01:54am 3.1 1.6 3.0 99 0.0 CALM 0 0 0 0 1022.6 1022.9 0.0
27/01:30am 4.8 3.2 4.7 99 0.0 N 2 7 1 4 1022.7 1023.0 0.0
27/01:00am 4.8 3.6 4.7 99 0.0 CALM 0 2 0 1 1022.7 1023.0 0.0
27/12:30am 5.0 3.9 4.9 99 0.0 CALM 0 0 0 0 1022.9 1023.2 0.0
27/12:00am 4.6 3.4 4.5 99 0.0 CALM 0 0 0 0 1023.0 1023.3 0.0
 
Date/Time
EST
Temp
°C
App
Temp
°C
Dew
Point
°C
Rel
Hum
%
Delta-T
°C
Wind Press
QNH
hPa
Press
MSL
hPa
Rain since
9am
mm
Dir  Spd
km/h
Gust
km/h
Spd
kts
Gust
kts
26/11:30pm 4.1 2.0 4.0 99 0.0 S 4 7 2 4 1022.9 1023.2 0.0
26/11:09pm 3.9 1.2 3.8 99 0.0 SSW 7 9 4 5 1022.8 1023.1 0.0
26/11:00pm 3.7 1.0 3.6 99 0.0 S 7 9 4 5 1022.8 1023.1 0.0
26/10:51pm 3.3 0.5 3.2 99 0.0 S 7 7 4 4 1022.7 1023.0 0.0
26/10:30pm 4.8 3.2 4.7 99 0.0 ESE 2 6 1 3 1022.7 1023.0 0.0
26/10:00pm 4.1 2.8 4.0 99 0.0 CALM 0 0 0 0 1022.8 1023.1 0.0
26/09:30pm 5.2 4.1 4.9 98 0.1 CALM 0 0 0 0 1022.7 1023.0 0.0
26/09:00pm 5.4 4.3 5.0 97 0.2 CALM 0 0 0 0 1022.7 1023.0 0.0
26/08:30pm 5.6 3.8 5.3 98 0.1 NW 4 9 2 5 1022.5 1022.8 0.0
26/08:00pm 5.3 2.9 5.2 99 0.0 SSW 7 7 4 4 1022.5 1022.8 0.0
26/07:30pm 5.6 3.3 4.9 95 0.3 NNW 6 9 3 5 1022.4 1022.6 0.0
26/07:00pm 7.2 5.0 6.3 94 0.4 NNW 7 7 4 4 1022.0 1022.2 0.0
26/06:30pm 6.4 3.7 5.4 93 0.5 E 9 11 5 6 1021.9 1022.1 0.0
26/06:00pm 8.2 7.3 6.2 87 0.9 CALM 0 0 0 0 1021.5 1021.8 0.0
26/05:30pm 9.7 7.4 5.9 77 1.8 W 7 9 4 5 1021.3 1021.6 0.0
26/05:00pm 12.1 9.8 7.6 74 2.3 W 9 13 5 7 1021.1 1021.4 0.0
26/04:30pm 14.3 11.4 6.4 59 3.9 N 11 15 6 8 1020.9 1021.1 0.0
26/04:00pm 15.2 11.6 5.1 51 4.9 N 13 15 7 8 1020.7 1020.9 0.0
26/03:30pm 15.6 12.4 5.2 50 5.1 WNW 11 15 6 8 1020.8 1021.0 0.0
26/03:00pm 15.7 12.4 4.4 47 5.4 NNW 11 15 6 8 1020.8 1021.0 0.0
26/02:30pm 15.2 13.1 6.0 54 4.6 N 6 9 3 5 1020.8 1021.0 0.0
26/02:00pm 14.1 12.0 6.7 61 3.7 WNW 7 11 4 6 1021.0 1021.3 0.0
26/01:30pm 13.6 11.7 6.7 63 3.4 NW 6 9 3 5 1021.3 1021.6 0.0
26/01:00pm 12.3 10.3 6.1 66 3.0 N 6 9 3 5 1021.8 1022.0 0.0
26/12:30pm 10.7 8.7 6.1 73 2.2 NW 6 9 3 5 1022.2 1022.4 0.0
26/12:00pm 9.2 7.2 6.1 81 1.5 WSW 6 11 3 6 1022.6 1022.9 0.0
26/11:30am 8.1 6.1 6.2 88 0.9 NW 6 7 3 4 1023.1 1023.4 0.0
26/11:00am 6.8 5.2 6.2 96 0.3 NW 4 9 2 5 1023.3 1023.6 0.0
26/10:30am 6.1 4.0 6.0 99 0.0 N 6 9 3 5 1023.6 1023.8 0.0
26/10:15am 5.8 4.1 5.7 99 0.0 NNE 4 7 2 4 1023.7 1023.9 0.0
26/10:00am 5.6 3.8 5.5 99 0.0 N 4 7 2 4 1023.7 1023.9 0.0
26/09:30am 5.4 4.3 5.3 99 0.0 CALM 0 0 0 0 1023.7 1023.9 0.0
26/09:00am 4.5 2.5 4.4 99 0.0 ENE 4 7 2 4 1023.7 1023.9 0.0
26/08:51am 4.5 3.3 4.4 99 0.0 CALM 0 4 0 2 1023.7 1023.9 0.0
26/08:30am 4.5 1.9 4.4 99 0.0 SSW 7 9 4 5 1023.7 1023.9 0.0
26/08:00am 4.4 1.8 4.3 99 0.0 ESE 7 9 4 5 1023.3 1023.6 0.0
26/07:30am 4.3 2.3 4.2 99 0.0 SSE 4 9 2 5 1023.2 1023.5 0.0
26/07:00am 4.5 3.3 4.4 99 0.0 CALM 0 0 0 0 1022.9 1023.2 0.0
26/06:30am 3.9 2.5 3.8 99 0.0 CALM 0 6 0 3 1022.7 1023.0 0.0
26/06:00am 3.4 2.0 3.3 99 0.0 CALM 0 0 0 0 1022.4 1022.6 0.0
26/05:30am 3.0 1.1 2.9 99 0.0 N 2 7 1 4 1022.2 1022.4 0.0
26/05:11am 2.7 0.8 2.6 99 0.0 N 2 7 1 4 1021.8 1022.0 0.0
26/05:08am 2.5 0.5 2.4 99 0.0 N 2 7 1 4 1021.8 1022.0 0.0
26/05:00am 2.5 -0.4 2.4 99 0.0 N 7 7 4 4 1021.5 1021.8 0.0
26/04:30am 2.1 0.0 2.0 99 0.0 E 2 6 1 3 1021.1 1021.4 0.0
26/04:00am 0.7 -1.2 0.6 99 0.0 CALM 0 9 0 5 1021.1 1021.4 0.0
26/03:36am 0.6 -1.3 0.5 99 0.0 CALM 0 2 0 1 1021.0 1021.3 0.0
26/03:35am 0.6 -1.3 0.5 99 0.0 CALM 0 2 0 1 1021.0 1021.3 0.0
26/03:30am 0.5 -1.4 0.4 99 0.0 CALM 0 6 0 3 1021.0 1021.3 0.0
26/03:00am 1.6 -1.5 1.5 99 0.0 N 7 9 4 5 1021.1 1021.4 0.0
26/02:51am 1.4 -1.7 1.3 99 0.0 NW 7 9 4 5 1021.1 1021.4 0.0
26/02:40am 1.2 -2.3 1.1 99 0.0 NNW 9 11 5 6 1021.2 1021.5 0.0
26/02:30am 1.8 -1.6 1.7 99 0.0 N 9 11 5 6 1021.0 1021.3 0.0
26/02:00am 2.8 -0.8 2.7 99 0.0 ESE 11 13 6 7 1021.1 1021.4 0.0
26/01:30am 1.4 -1.7 1.3 99 0.0 WSW 7 9 4 5 1021.1 1021.4 0.0
26/01:00am 2.4 -1.3 2.3 99 0.0 ESE 11 11 6 6 1020.5 1020.7 0.0
26/12:30am 2.3 -1.8 2.2 99 0.0 SE 13 15 7 8 1020.8 1021.0 0.0
26/12:00am 1.9 -1.5 1.8 99 0.0 SE 9 11 5 6 1020.9 1021.1 0.0
 
Date/Time
EST
Temp
°C
App
Temp
°C
Dew
Point
°C
Rel
Hum
%
Delta-T
°C
Wind Press
QNH
hPa
Press
MSL
hPa
Rain since
9am
mm
Dir  Spd
km/h
Gust
km/h
Spd
kts
Gust
kts
25/11:30pm 2.3 -1.0 2.2 99 0.0 SE 9 11 5 6 1020.9 1021.1 0.0
25/11:00pm 2.7 0.0 2.6 99 0.0 S 6 7 3 4 1020.9 1021.1 0.0
25/10:36pm 3.1 -0.1 3.0 99 0.0 ESE 9 11 5 6 1021.0 1021.3 0.0
25/10:30pm 3.2 0.0 3.1 99 0.0 SE 9 11 5 6 1020.9 1021.1 0.0
25/10:15pm 2.5 -0.4 2.4 99 0.0 SSW 7 9 4 5 1021.1 1021.4 0.0
25/10:00pm 3.6 2.2 3.5 99 0.0 CALM 0 0 0 0 1021.0 1021.3 0.0
25/09:30pm 4.5 3.3 4.4 99 0.0 CALM 0 2 0 1 1021.1 1021.4 0.0
25/09:00pm 4.6 2.6 4.3 98 0.1 NNW 4 7 2 4 1020.8 1021.0 0.0
25/08:30pm 4.5 2.1 4.2 98 0.1 ENE 6 7 3 4 1020.9 1021.1 0.0
25/08:00pm 5.0 1.8 4.9 99 0.0 ESE 11 13 6 7 1020.6 1020.8 0.0
25/07:30pm 3.9 1.8 3.8 99 0.0 SSE 4 7 2 4 1020.6 1020.8 0.0
25/07:05pm 4.1 1.6 4.0 99 0.0 SE 6 11 3 6 1020.5 1020.7 0.0
25/07:00pm 4.6 2.2 4.5 99 0.0 ESE 6 7 3 4 1020.5 1020.7 0.0
25/06:30pm 5.6 3.8 5.5 99 0.0 NNW 4 7 2 4 1020.2 1020.4 0.0
25/06:00pm 5.9 3.1 5.3 96 0.3 E 9 9 5 5 1020.1 1020.3 0.0
25/05:30pm 8.0 6.1 6.8 92 0.6 ESE 6 7 3 4 1019.7 1020.0 0.0
25/05:00pm 9.1 7.1 6.9 86 1.1 SSE 7 9 4 5 1019.7 1020.0 0.0
25/04:30pm 11.2 9.4 7.9 80 1.7 SSW 7 11 4 6 1019.7 1020.0 0.0
25/04:00pm 11.6 9.5 8.1 79 1.8 SW 9 11 5 6 1019.7 1020.0 0.0
25/03:30pm 11.8 9.6 7.9 77 2.0 WSW 9 13 5 7 1019.7 1020.0 0.0
25/03:00pm 11.5 8.5 7.6 77 1.9 WSW 13 15 7 8 1019.7 1020.0 0.0
25/02:30pm 11.9 8.9 7.6 75 2.2 W 13 15 7 8 1020.0 1020.2 0.0
25/02:00pm 11.1 8.3 7.0 76 2.0 WNW 11 17 6 9 1020.4 1020.6 0.0
25/01:30pm 10.8 7.2 6.6 75 2.0 WNW 15 19 8 10 1020.7 1020.9 0.0
25/01:00pm 10.1 7.2 6.3 77 1.8 NNW 11 17 6 9 1020.9 1021.1 0.0
25/12:30pm 8.6 6.0 6.2 85 1.1 NNE 9 13 5 7 1021.2 1021.5 0.0
25/12:00pm 8.0 5.4 6.1 88 0.9 NNW 9 11 5 6 1021.7 1021.9 0.0
25/11:30am 7.5 4.1 5.8 89 0.8 NNW 13 17 7 9 1022.1 1022.3 0.0
25/11:00am 6.9 4.4 6.5 97 0.2 NNW 9 11 5 6 1022.4 1022.6 0.0
25/10:30am 6.2 5.3 6.1 99 0.0 CALM 0 6 0 3 1022.5 1022.8 0.0
25/10:15am 6.0 5.1 5.9 99 0.0 CALM 0 0 0 0 1022.4 1022.6 0.0
25/10:00am 5.5 4.1 5.4 99 0.0 ENE 2 6 1 3 1022.5 1022.8 0.0
25/09:30am 5.2 3.7 5.1 99 0.0 SE 2 7 1 4 1022.5 1022.8 0.0
25/09:28am 5.2 3.3 5.1 99 0.0 SE 4 7 2 4 1022.5 1022.8 0.0
25/09:00am 4.4 1.4 4.3 99 0.0 SE 9 13 5 7 1022.4 1022.6 0.0
25/08:30am 4.1 1.1 4.0 99 0.0 SE 9 11 5 6 1022.4 1022.6 0.0
25/08:00am 3.4 0.2 3.3 99 0.0 ESE 9 11 5 6 1022.2 1022.4 0.0
25/07:41am 3.0 -1.0 2.9 99 0.0 ESE 13 15 7 8 1022.0 1022.2 0.0
25/07:30am 3.1 -1.2 3.0 99 0.0 SE 15 17 8 9 1021.9 1022.1 0.0
25/07:00am 3.1 -0.5 3.0 99 0.0 SE 11 15 6 8 1021.7 1021.9 0.0
25/06:30am 3.5 0.0 3.4 99 0.0 SE 11 15 6 8 1021.3 1021.6 0.0
25/06:27am 3.3 0.1 3.2 99 0.0 SE 9 15 5 8 1021.3 1021.6 0.0
25/06:12am 3.7 0.6 3.6 99 0.0 SE 9 13 5 7 1021.2 1021.5 0.0
25/06:00am 3.5 0.0 3.4 99 0.0 SE 11 13 6 7 1021.1 1021.4 0.0
25/05:30am 3.4 -0.1 3.3 99 0.0 SE 11 11 6 6 1020.9 1021.1 0.0
25/05:00am 3.1 -0.1 3.0 99 0.0 SE 9 11 5 6 1020.5 1020.7 0.0
25/04:30am 2.7 -0.6 2.6 99 0.0 SE 9 11 5 6 1020.3 1020.5 0.0
25/04:10am 2.0 -1.4 1.9 99 0.0 SE 9 9 5 5 1020.4 1020.6 0.0
25/04:09am 2.1 -1.3 2.0 99 0.0 SE 9 9 5 5 1020.4 1020.6 0.0
25/04:00am 1.8 -1.2 1.7 99 0.0 ESE 7 9 4 5 1020.5 1020.7 0.0
25/03:51am 2.2 0.5 2.1 99 0.0 CALM 0 7 0 4 1020.5 1020.7 0.0
25/03:46am 2.2 0.5 2.1 99 0.0 CALM 0 0 0 0 1020.4 1020.6 0.0
25/03:30am 1.4 -0.4 1.3 99 0.0 CALM 0 0 0 0 1020.3 1020.5 0.0
25/03:00am 1.3 -0.9 1.2 99 0.0 SE 2 9 1 5 1020.3 1020.5 0.0
25/02:30am 1.6 -1.3 1.5 99 0.0 SE 6 7 3 4 1020.3 1020.5 0.0
25/02:29am 1.6 -1.3 1.5 99 0.0 SE 6 7 3 4 1020.3 1020.5 0.0
25/02:00am 1.4 -0.8 1.3 99 0.0 S 2 9 1 5 1020.3 1020.5 0.0
25/01:30am 1.7 0.0 1.6 99 0.0 CALM 0 0 0 0 1020.2 1020.4 0.0
25/01:00am 1.7 -0.1 1.3 97 0.2 CALM 0 0 0 0 1020.1 1020.3 0.0
25/12:30am 3.9 2.4 3.0 94 0.4 CALM 0 0 0 0 1020.1 1020.3 0.0
25/12:00am 4.2 2.8 3.3 94 0.4 CALM 0 0 0 0 1020.2 1020.4 0.0
 
Date/Time
EST
Temp
°C
App
Temp
°C
Dew
Point
°C
Rel
Hum
%
Delta-T
°C
Wind Press
QNH
hPa
Press
MSL
hPa
Rain since
9am
mm
Dir  Spd
km/h
Gust
km/h
Spd
kts
Gust
kts
24/11:30pm 4.3 2.9 3.3 93 0.4 CALM 0 0 0 0 1020.2 1020.4 0.0
24/11:00pm 6.4 3.4 4.2 86 1.0 N 9 13 5 7 1019.9 1020.1 0.0
24/10:30pm 7.3 4.5 5.1 86 1.0 NNE 9 11 5 6 1020.0 1020.2 0.0
24/10:00pm 7.4 4.9 5.0 85 1.1 N 7 9 4 5 1019.7 1020.0 0.0
24/09:30pm 7.1 4.0 5.4 89 0.8 NNE 11 15 6 8 1019.5 1019.8 0.0
24/09:00pm 7.1 4.6 4.8 85 1.0 N 7 9 4 5 1019.5 1019.8 0.0
24/08:30pm 6.4 4.3 4.1 85 1.0 NNW 4 7 2 4 1019.3 1019.5 0.0
24/08:00pm 7.9 5.1 5.2 83 1.2 NE 9 11 5 6 1019.0 1019.2 0.0
24/07:30pm 9.4 6.0 5.8 78 1.7 N 13 17 7 9 1018.7 1018.9 0.0
24/07:00pm 9.4 6.2 5.0 74 2.0 WNW 11 15 6 8 1018.4 1018.6 0.0
24/06:30pm 9.6 6.0 5.2 74 2.1 NNW 13 17 7 9 1017.8 1018.0 0.0
24/06:00pm 11.6 8.0 5.0 64 3.1 WNW 13 19 7 10 1017.4 1017.6 0.0
24/05:30pm 12.0 6.7 5.0 62 3.3 W 22 30 12 16 1016.7 1016.9 0.0
24/05:00pm 12.2 6.5 4.9 61 3.5 WNW 24 30 13 16 1016.4 1016.5 0.0
24/04:30pm 13.2 7.1 4.9 57 4.0 WNW 26 33 14 18 1016.0 1016.2 0.0
24/04:00pm 13.3 8.9 4.7 56 4.1 WNW 17 22 9 12 1015.9 1016.1 0.0
24/03:30pm 14.2 9.2 4.8 53 4.5 WNW 20 39 11 21 1015.5 1015.7 0.0
24/03:00pm 14.3 7.6 5.4 55 4.3 WNW 30 39 16 21 1014.9 1015.0 0.0
24/02:30pm 14.8 9.1 4.8 51 4.8 WNW 24 33 13 18 1015.0 1015.1 0.0
24/02:00pm 15.3 8.4 4.4 48 5.2 W 30 37 16 20 1014.7 1014.8 0.0
24/01:30pm 15.3 8.5 5.0 50 5.0 WNW 30 39 16 21 1014.6 1014.7 0.0
24/01:00pm 15.1 6.9 4.8 50 5.0 WNW 37 50 20 27 1014.6 1014.7 0.0
24/12:30pm 15.1 8.6 4.8 50 5.0 WNW 28 35 15 19 1015.1 1015.3 0.0
24/12:00pm 13.8 7.4 5.4 57 4.1 WNW 28 39 15 21 1015.5 1015.7 0.0
24/11:30am 15.1 9.2 5.9 54 4.6 WNW 26 35 14 19 1015.5 1015.7 0.0
24/11:00am 15.1 8.4 7.2 59 4.0 WNW 32 41 17 22 1015.3 1015.5 0.0
24/10:34am 14.6 8.6 7.2 61 3.7 WNW 28 46 15 25 1015.6 1015.8 0.0
24/10:30am 14.4 8.3 6.7 60 3.9 WNW 28 37 15 20 1015.7 1015.9 0.0
24/10:00am 14.1 9.3 7.4 64 3.4 WNW 22 32 12 17 1015.7 1015.9 0.0
24/09:30am 13.6 9.9 9.5 76 2.2 NW 19 26 10 14 1015.6 1015.8 0.0
24/09:00am 12.6 9.0 10.0 84 1.4 NNW 19 26 10 14 1015.6 1015.8 1.8
24/08:30am 10.9 8.6 10.6 98 0.2 NNW 13 15 7 8 1015.4 1015.6 1.6
24/08:00am 10.9 9.8 10.7 99 0.1 SSW 7 11 4 6 1015.5 1015.7 1.4
24/07:35am 10.6 10.8 10.4 99 0.1 CALM 0 2 0 1 1015.4 1015.6 1.4
24/07:30am 10.3 9.6 10.1 99 0.1 S 4 9 2 5 1015.3 1015.5 1.4
24/07:00am 9.8 7.7 9.7 99 0.1 NNW 11 13 6 7 1014.7 1014.8 1.4

Latest Capital City Observations: Canberra | Sydney | Melbourne | Brisbane | Adelaide | Perth | Hobart | Darwin

Other Formats:

Comma delimited format used in spreadsheet applications
http://www.bom.gov.au/fwo/IDN60903/IDN60903.94926.axf

JavaScript Object Notation format (JSON) in row-major order
http://www.bom.gov.au/fwo/IDN60903/IDN60903.94926.json